createdAt,value
2023-01-27T00:00:21.515Z,100419.03
2023-01-27T00:05:23.801Z,100419.38
2023-01-27T00:10:25.197Z,100413.81
2023-01-27T00:15:26.675Z,100411.22
2023-01-27T00:20:46.710Z,100411.22
2023-01-27T00:25:50.238Z,100406.31
2023-01-27T00:30:52.578Z,100408.09
2023-01-27T00:36:00.045Z,100410.16
2023-01-27T00:41:19.706Z,100410.63
2023-01-27T00:46:22.439Z,100411.31
2023-01-27T00:51:23.967Z,100420.13
2023-01-27T00:56:25.343Z,100412.03
2023-01-27T01:01:26.881Z,100413.34
2023-01-27T01:06:28.337Z,100421.19
2023-01-27T01:11:29.731Z,100416.78
2023-01-27T01:16:31.155Z,100415.00
2023-01-27T01:21:32.542Z,100416.22
2023-01-27T01:26:33.959Z,100417.16
2023-01-27T01:31:35.386Z,100418.69
2023-01-27T01:36:36.800Z,100406.47
2023-01-27T01:41:38.320Z,100413.47
2023-01-27T01:46:39.724Z,100410.16
2023-01-27T01:51:45.193Z,100413.25
2023-01-27T01:56:48.510Z,100417.97
2023-01-27T02:01:50.891Z,100416.69
2023-01-27T02:07:05.133Z,100426.19
2023-01-27T02:12:06.601Z,100429.00
2023-01-27T02:17:08.079Z,100420.59
2023-01-27T02:22:11.003Z,100421.09
2023-01-27T02:27:14.158Z,100425.47
2023-01-27T02:32:25.283Z,100428.34
2023-01-27T02:37:26.695Z,100418.69
2023-01-27T02:42:28.213Z,100426.44
2023-01-27T02:47:29.586Z,100425.13
2023-01-27T02:52:31.054Z,100440.91
2023-01-27T02:57:32.458Z,100441.03
2023-01-27T03:02:33.889Z,100444.47
2023-01-27T03:07:35.310Z,100442.13
2023-01-27T03:12:36.757Z,100436.06
2023-01-27T03:17:57.007Z,100441.63
2023-01-27T03:22:58.410Z,100438.91
2023-01-27T03:28:00.009Z,100444.00
2023-01-27T03:33:03.201Z,100445.91
2023-01-27T03:38:29.094Z,100453.41
2023-01-27T03:43:49.132Z,100455.03
2023-01-27T03:48:55.318Z,100442.59
2023-01-27T03:53:56.695Z,100461.72
2023-01-27T03:58:58.105Z,100450.66
2023-01-27T04:04:17.776Z,100456.13
2023-01-27T04:09:20.402Z,100463.88
2023-01-27T04:14:21.707Z,100459.00
2023-01-27T04:19:23.124Z,100449.09
2023-01-27T04:24:24.682Z,100453.88
2023-01-27T04:29:27.851Z,100451.03
2023-01-27T04:34:29.315Z,100450.31
2023-01-27T04:39:30.707Z,100447.47
2023-01-27T04:44:32.173Z,100438.53
2023-01-27T04:49:33.581Z,100443.06
2023-01-27T04:54:35.050Z,100447.59
2023-01-27T04:59:36.424Z,100445.78
2023-01-27T05:04:38.410Z,100443.53
2023-01-27T05:09:39.815Z,100439.09
2023-01-27T05:14:41.204Z,100442.34
2023-01-27T05:19:42.593Z,100453.28
2023-01-27T05:24:44.158Z,100456.72
2023-01-27T05:29:45.590Z,100471.81
2023-01-27T05:34:46.978Z,100473.63
2023-01-27T05:39:48.364Z,100472.31
2023-01-27T05:44:50.651Z,100484.56
2023-01-27T05:49:52.093Z,100485.84
2023-01-27T05:54:53.482Z,100485.50
2023-01-27T05:59:54.864Z,100482.78
2023-01-27T06:04:56.247Z,100498.81
2023-01-27T06:09:57.697Z,100488.22
2023-01-27T06:15:00.195Z,100505.59
2023-01-27T06:20:01.603Z,100502.38
2023-01-27T06:25:03.011Z,100498.81
2023-01-27T06:30:04.647Z,100509.25
2023-01-27T06:35:06.588Z,100509.25
2023-01-27T06:40:08.541Z,100508.94
2023-01-27T06:45:13.057Z,100519.25
2023-01-27T06:50:14.974Z,100516.41
2023-01-27T06:55:16.774Z,100505.91
2023-01-27T07:00:18.639Z,100523.53
2023-01-27T07:05:21.295Z,100534.81
2023-01-27T07:10:22.665Z,100536.38
2023-01-27T07:15:24.071Z,100542.50
2023-01-27T07:20:28.649Z,100536.59
2023-01-27T07:25:32.484Z,100541.59
2023-01-27T07:30:34.153Z,100547.41
2023-01-27T07:35:36.524Z,100548.84
2023-01-27T07:40:37.930Z,100561.50
2023-01-27T07:45:39.409Z,100564.00
2023-01-27T07:50:43.551Z,100556.06
2023-01-27T07:55:44.936Z,100560.31
2023-01-27T08:00:46.381Z,100553.91
2023-01-27T08:05:47.832Z,100565.94
2023-01-27T08:10:51.216Z,100572.72
2023-01-27T08:15:57.723Z,100579.25
2023-01-27T08:20:59.982Z,100585.22
2023-01-27T08:26:03.982Z,100589.53
2023-01-27T08:31:12.661Z,100590.84
2023-01-27T08:36:15.143Z,100589.91
2023-01-27T08:41:21.987Z,100593.13
2023-01-27T08:46:23.410Z,100602.59
2023-01-27T08:51:24.821Z,100594.06
2023-01-27T08:56:26.207Z,100596.19
2023-01-27T09:01:27.620Z,100594.13
2023-01-27T09:06:29.056Z,100601.31
2023-01-27T09:11:30.432Z,100607.00
2023-01-27T09:16:32.333Z,100603.69
2023-01-27T09:21:34.020Z,100614.63
2023-01-27T09:26:35.419Z,100617.47
2023-01-27T09:31:36.909Z,100618.66
2023-01-27T09:36:42.759Z,100629.28
2023-01-27T09:41:57.584Z,100628.69
2023-01-27T09:47:04.975Z,100633.78
2023-01-27T09:52:30.629Z,100635.59
2023-01-27T09:57:48.213Z,100637.00
2023-01-27T10:03:04.375Z,100636.28
2023-01-27T10:08:17.871Z,100634.97
2023-01-27T10:13:48.683Z,100631.91
2023-01-27T10:19:08.949Z,100618.06
2023-01-27T10:24:26.405Z,100629.97
2023-01-27T10:29:36.974Z,100630.59
2023-01-27T10:34:44.941Z,100626.91
2023-01-27T10:39:53.833Z,100616.91
2023-01-27T10:45:32.795Z,100625.81
2023-01-27T10:50:37.385Z,100623.69
2023-01-27T10:55:46.592Z,100623.06
2023-01-27T11:01:19.165Z,100634.41
2023-01-27T11:06:20.083Z,100629.97
2023-01-27T11:11:40.201Z,100630.69
2023-01-27T11:16:44.666Z,100626.19
2023-01-27T11:21:52.981Z,100626.19
2023-01-27T11:27:03.927Z,100629.75
2023-01-27T11:32:20.534Z,100628.34
2023-01-27T11:37:24.417Z,100627.38
2023-01-27T11:42:30.164Z,100617.38
2023-01-27T11:47:36.090Z,100618.66
2023-01-27T11:52:37.530Z,100620.09
2023-01-27T11:57:41.425Z,100621.50
2023-01-27T12:02:45.032Z,100607.56
2023-01-27T12:08:00.384Z,100600.19
2023-01-27T12:13:26.295Z,100600.06
2023-01-27T12:18:28.138Z,100598.41
2023-01-27T12:23:35.657Z,100584.13
2023-01-27T12:28:45.759Z,100589.00
2023-01-27T12:33:51.912Z,100593.84
2023-01-27T12:38:55.465Z,100588.75
2023-01-27T12:44:22.363Z,100585.44
2023-01-27T12:49:34.995Z,100592.69
2023-01-27T12:54:37.218Z,100574.13
2023-01-27T12:59:46.238Z,100580.44
2023-01-27T13:04:51.723Z,100580.44
2023-01-27T13:09:56.009Z,100576.72
2023-01-27T13:14:58.710Z,100586.25
2023-01-27T13:20:13.653Z,100581.72
2023-01-27T13:25:20.635Z,100587.66
2023-01-27T13:30:36.642Z,100584.22
2023-01-27T13:35:41.781Z,100587.59
2023-01-27T13:40:44.501Z,100578.66
2023-01-27T13:45:55.289Z,100580.81
2023-01-27T13:51:16.735Z,100589.75
2023-01-27T13:56:36.294Z,100588.31
2023-01-27T14:01:55.999Z,100587.97
2023-01-27T14:07:03.185Z,100585.22
2023-01-27T14:12:45.519Z,100582.16
2023-01-27T14:18:08.675Z,100587.97
2023-01-27T14:23:16.500Z,100594.16
2023-01-27T14:28:27.149Z,100599.97
2023-01-27T14:33:31.470Z,100609.13
2023-01-27T14:38:57.002Z,100610.13
2023-01-27T14:44:13.153Z,100612.34
2023-01-27T14:49:17.372Z,100618.19
2023-01-27T14:54:27.873Z,100617.72
2023-01-27T14:59:47.465Z,100624.03
2023-01-27T15:05:03.902Z,100637.00
2023-01-27T15:10:27.371Z,100633.69
2023-01-27T15:16:14.332Z,100636.28
2023-01-27T15:21:29.337Z,100631.28
2023-01-27T15:26:30.748Z,100639.22
2023-01-27T15:31:32.600Z,100654.59
2023-01-27T15:36:35.844Z,100645.41
2023-01-27T15:41:37.935Z,100643.72
2023-01-27T15:46:48.371Z,100649.56
2023-01-27T15:51:54.319Z,100644.69
2023-01-27T15:56:55.861Z,100650.63
2023-01-27T16:02:14.760Z,100651.34
2023-01-27T16:07:31.333Z,100649.88
2023-01-27T16:12:44.982Z,100647.31
2023-01-27T16:18:07.933Z,100658.47
2023-01-27T16:23:15.464Z,100665.84
2023-01-27T16:28:26.043Z,100668.03
2023-01-27T16:33:37.056Z,100671.50
2023-01-27T16:38:39.424Z,100676.53
2023-01-27T16:43:46.572Z,100681.00
2023-01-27T16:48:47.971Z,100682.75
2023-01-27T16:53:53.354Z,100678.59
2023-01-27T16:58:59.526Z,100688.00
2023-01-27T17:04:14.141Z,100681.72
2023-01-27T17:09:21.839Z,100694.59
2023-01-27T17:14:31.755Z,100694.22
2023-01-27T17:19:34.259Z,100695.91
2023-01-27T17:24:43.418Z,100705.34
2023-01-27T17:29:45.475Z,100701.13
2023-01-27T17:34:48.397Z,100711.09
2023-01-27T17:39:59.530Z,100712.78
2023-01-27T17:45:23.936Z,100714.59
2023-01-27T17:50:33.979Z,100716.47
2023-01-27T17:55:35.360Z,100721.81
2023-01-27T18:00:38.464Z,100731.91
2023-01-27T18:05:39.876Z,100726.56
2023-01-27T18:10:43.988Z,100720.28
2023-01-27T18:15:52.189Z,100721.34
2023-01-27T18:20:59.537Z,100727.72
2023-01-27T18:26:07.505Z,100731.00
2023-01-27T18:31:27.017Z,100730.75
2023-01-27T18:36:33.095Z,100738.34
2023-01-27T18:41:38.008Z,100746.41
2023-01-27T18:46:39.522Z,100746.16
2023-01-27T18:51:41.063Z,100754.56
2023-01-27T18:56:42.457Z,100768.44
2023-01-27T19:01:43.890Z,100766.84
2023-01-27T19:06:45.329Z,100762.56
2023-01-27T19:11:46.751Z,100772.59
2023-01-27T19:16:48.130Z,100770.31
2023-01-27T19:21:49.538Z,100767.19
2023-01-27T19:26:50.913Z,100768.28
2023-01-27T19:31:52.361Z,100783.78
2023-01-27T19:36:53.758Z,100776.88
2023-01-27T19:41:55.145Z,100772.06
2023-01-27T19:46:56.581Z,100781.81
2023-01-27T19:51:58.799Z,100775.19
2023-01-27T19:57:00.169Z,100784.84
2023-01-27T20:02:01.608Z,100791.00
2023-01-27T20:07:03.128Z,100804.03
2023-01-27T20:12:04.589Z,100801.09
2023-01-27T20:17:05.990Z,100803.53
2023-01-27T20:22:10.019Z,100803.78
2023-01-27T20:27:11.414Z,100804.88
2023-01-27T20:32:13.414Z,100812.47
2023-01-27T20:37:14.801Z,100807.75
2023-01-27T20:42:16.197Z,100802.69
2023-01-27T20:47:17.580Z,100809.06
2023-01-27T20:52:19.010Z,100806.16
2023-01-27T20:57:21.981Z,100802.75
2023-01-27T21:02:23.463Z,100808.59
2023-01-27T21:07:24.888Z,100811.59
2023-01-27T21:12:27.272Z,100819.00
2023-01-27T21:17:28.662Z,100806.56
2023-01-27T21:22:30.119Z,100819.53
2023-01-27T21:27:31.534Z,100818.69
2023-01-27T21:32:32.922Z,100807.84
2023-01-27T21:37:36.001Z,100816.88
2023-01-27T21:42:56.056Z,100810.75
2023-01-27T21:47:57.450Z,100808.84
2023-01-27T21:52:58.856Z,100818.53
2023-01-27T21:58:00.241Z,100818.78
2023-01-27T22:03:03.002Z,100808.00
2023-01-27T22:08:06.604Z,100810.28
2023-01-27T22:13:10.469Z,100797.06
2023-01-27T22:18:13.261Z,100803.19
2023-01-27T22:23:14.663Z,100809.06
2023-01-27T22:28:16.089Z,100811.34
2023-01-27T22:33:17.470Z,100813.47
2023-01-27T22:38:18.851Z,100806.41
2023-01-27T22:43:20.232Z,100803.00
2023-01-27T22:48:21.715Z,100805.03
2023-01-27T22:53:23.248Z,100799.81
2023-01-27T22:58:25.058Z,100807.84
2023-01-27T23:03:26.444Z,100816.06
2023-01-27T23:08:27.933Z,100815.59
2023-01-27T23:13:29.879Z,100808.00
2023-01-27T23:18:31.354Z,100808.22
2023-01-27T23:23:33.481Z,100802.84
2023-01-27T23:28:35.246Z,100801.09
2023-01-27T23:33:37.382Z,100799.81
2023-01-27T23:38:38.864Z,100800.84
2023-01-27T23:43:40.294Z,100798.22
2023-01-27T23:48:41.917Z,100798.13
2023-01-27T23:53:43.464Z,100802.09
2023-01-27T23:58:44.952Z,100797.66
